sensor_id;sensor_type;location;lat;lon;timestamp;temperature;humidity
20068;DHT22;10194;50.824;7.134;2023-08-07T00:01:07;13.70;99.90
20068;DHT22;10194;50.824;7.134;2023-08-07T00:03:33;13.70;99.90
20068;DHT22;10194;50.824;7.134;2023-08-07T00:05:59;13.70;99.90
20068;DHT22;10194;50.824;7.134;2023-08-07T00:08:25;13.70;99.90
20068;DHT22;10194;50.824;7.134;2023-08-07T00:10:52;13.70;99.90
20068;DHT22;10194;50.824;7.134;2023-08-07T00:13:17;13.70;99.90
20068;DHT22;10194;50.824;7.134;2023-08-07T00:15:44;13.60;99.90
20068;DHT22;10194;50.824;7.134;2023-08-07T00:18:10;13.50;99.90
20068;DHT22;10194;50.824;7.134;2023-08-07T00:20:36;13.50;99.90
20068;DHT22;10194;50.824;7.134;2023-08-07T00:23:02;13.50;99.90
20068;DHT22;10194;50.824;7.134;2023-08-07T00:25:28;13.50;99.90
20068;DHT22;10194;50.824;7.134;2023-08-07T00:27:54;13.50;99.90
20068;DHT22;10194;50.824;7.134;2023-08-07T00:30:19;13.40;99.90
20068;DHT22;10194;50.824;7.134;2023-08-07T00:32:45;13.40;99.90
20068;DHT22;10194;50.824;7.134;2023-08-07T00:35:11;13.40;99.90
20068;DHT22;10194;50.824;7.134;2023-08-07T00:37:37;13.30;99.90
20068;DHT22;10194;50.824;7.134;2023-08-07T00:40:03;13.40;99.90
20068;DHT22;10194;50.824;7.134;2023-08-07T00:42:29;13.40;99.90
20068;DHT22;10194;50.824;7.134;2023-08-07T00:44:55;13.30;99.90
20068;DHT22;10194;50.824;7.134;2023-08-07T00:47:21;13.40;99.90
20068;DHT22;10194;50.824;7.134;2023-08-07T00:49:47;13.50;99.90
20068;DHT22;10194;50.824;7.134;2023-08-07T00:52:13;13.50;99.90
20068;DHT22;10194;50.824;7.134;2023-08-07T00:54:39;13.60;99.90
20068;DHT22;10194;50.824;7.134;2023-08-07T00:57:10;13.50;99.90
20068;DHT22;10194;50.824;7.134;2023-08-07T00:59:38;13.60;99.90
20068;DHT22;10194;50.824;7.134;2023-08-07T01:02:06;13.60;99.90
20068;DHT22;10194;50.824;7.134;2023-08-07T01:04:33;13.60;99.90
20068;DHT22;10194;50.824;7.134;2023-08-07T01:07:00;13.60;99.90
20068;DHT22;10194;50.824;7.134;2023-08-07T01:09:27;13.60;99.90
20068;DHT22;10194;50.824;7.134;2023-08-07T01:12:24;13.60;99.90
20068;DHT22;10194;50.824;7.134;2023-08-07T01:15:02;13.60;99.90
20068;DHT22;10194;50.824;7.134;2023-08-07T01:17:32;13.50;99.90
20068;DHT22;10194;50.824;7.134;2023-08-07T01:20:00;13.50;99.90
20068;DHT22;10194;50.824;7.134;2023-08-07T01:22:26;13.50;99.90
20068;DHT22;10194;50.824;7.134;2023-08-07T01:24:51;13.50;99.90
20068;DHT22;10194;50.824;7.134;2023-08-07T01:32:57;13.50;99.90
20068;DHT22;10194;50.824;7.134;2023-08-07T01:35:35;13.40;99.90
20068;DHT22;10194;50.824;7.134;2023-08-07T01:38:03;13.50;99.90
20068;DHT22;10194;50.824;7.134;2023-08-07T01:40:29;13.50;99.90
20068;DHT22;10194;50.824;7.134;2023-08-07T01:42:56;13.50;99.90
20068;DHT22;10194;50.824;7.134;2023-08-07T01:45:26;13.50;99.90
20068;DHT22;10194;50.824;7.134;2023-08-07T01:47:53;13.60;99.90
20068;DHT22;10194;50.824;7.134;2023-08-07T01:50:22;13.60;99.90
20068;DHT22;10194;50.824;7.134;2023-08-07T01:52:49;13.50;99.90
20068;DHT22;10194;50.824;7.134;2023-08-07T01:55:16;13.50;99.90
20068;DHT22;10194;50.824;7.134;2023-08-07T01:57:43;13.50;99.90
20068;DHT22;10194;50.824;7.134;2023-08-07T02:00:10;13.60;99.90
20068;DHT22;10194;50.824;7.134;2023-08-07T02:02:37;13.60;99.90
20068;DHT22;10194;50.824;7.134;2023-08-07T02:05:03;13.70;99.90
20068;DHT22;10194;50.824;7.134;2023-08-07T02:07:30;13.60;99.90
20068;DHT22;10194;50.824;7.134;2023-08-07T02:09:57;13.60;99.90
20068;DHT22;10194;50.824;7.134;2023-08-07T02:12:23;13.70;99.90
20068;DHT22;10194;50.824;7.134;2023-08-07T02:14:50;13.70;99.90
20068;DHT22;10194;50.824;7.134;2023-08-07T02:17:16;13.60;99.90
20068;DHT22;10194;50.824;7.134;2023-08-07T02:19:42;13.70;99.90
20068;DHT22;10194;50.824;7.134;2023-08-07T02:22:08;13.60;99.90
20068;DHT22;10194;50.824;7.134;2023-08-07T02:24:33;13.60;99.90
20068;DHT22;10194;50.824;7.134;2023-08-07T02:26:59;13.60;99.90
20068;DHT22;10194;50.824;7.134;2023-08-07T02:29:25;13.60;99.90
20068;DHT22;10194;50.824;7.134;2023-08-07T02:31:51;13.70;99.90
20068;DHT22;10194;50.824;7.134;2023-08-07T02:34:16;13.70;99.90
20068;DHT22;10194;50.824;7.134;2023-08-07T02:36:42;13.70;99.90
20068;DHT22;10194;50.824;7.134;2023-08-07T02:39:08;13.70;99.90
20068;DHT22;10194;50.824;7.134;2023-08-07T02:41:33;13.60;99.90
20068;DHT22;10194;50.824;7.134;2023-08-07T02:43:59;13.70;99.90
20068;DHT22;10194;50.824;7.134;2023-08-07T02:46:25;13.70;99.90
20068;DHT22;10194;50.824;7.134;2023-08-07T02:48:51;13.70;99.90
20068;DHT22;10194;50.824;7.134;2023-08-07T02:51:18;13.60;99.90
20068;DHT22;10194;50.824;7.134;2023-08-07T02:53:43;13.70;99.90
20068;DHT22;10194;50.824;7.134;2023-08-07T02:56:09;13.70;99.90
20068;DHT22;10194;50.824;7.134;2023-08-07T02:58:36;13.80;99.90
20068;DHT22;10194;50.824;7.134;2023-08-07T03:01:05;13.80;99.90
20068;DHT22;10194;50.824;7.134;2023-08-07T03:03:33;13.70;99.90
20068;DHT22;10194;50.824;7.134;2023-08-07T03:05:59;13.70;99.90
20068;DHT22;10194;50.824;7.134;2023-08-07T03:08:24;13.70;99.90
20068;DHT22;10194;50.824;7.134;2023-08-07T03:10:55;13.70;99.90
20068;DHT22;10194;50.824;7.134;2023-08-07T03:13:24;13.60;99.90
20068;DHT22;10194;50.824;7.134;2023-08-07T03:15:53;13.60;99.90
20068;DHT22;10194;50.824;7.134;2023-08-07T03:18:24;13.60;99.90
20068;DHT22;10194;50.824;7.134;2023-08-07T03:20:50;13.50;99.90
20068;DHT22;10194;50.824;7.134;2023-08-07T03:23:15;13.40;99.90
20068;DHT22;10194;50.824;7.134;2023-08-07T03:25:41;13.30;99.90
20068;DHT22;10194;50.824;7.134;2023-08-07T03:28:07;13.30;99.90
20068;DHT22;10194;50.824;7.134;2023-08-07T03:30:32;13.30;99.90
20068;DHT22;10194;50.824;7.134;2023-08-07T03:32:58;13.20;99.90
20068;DHT22;10194;50.824;7.134;2023-08-07T03:35:24;13.20;99.90
20068;DHT22;10194;50.824;7.134;2023-08-07T03:37:50;13.10;99.90
20068;DHT22;10194;50.824;7.134;2023-08-07T03:40:15;13.10;99.90
20068;DHT22;10194;50.824;7.134;2023-08-07T03:42:41;13.10;99.90
20068;DHT22;10194;50.824;7.134;2023-08-07T03:45:07;13.10;99.90
20068;DHT22;10194;50.824;7.134;2023-08-07T03:47:33;13.20;99.90
20068;DHT22;10194;50.824;7.134;2023-08-07T03:49:59;13.10;99.90
20068;DHT22;10194;50.824;7.134;2023-08-07T03:52:25;13.10;99.90
20068;DHT22;10194;50.824;7.134;2023-08-07T03:54:50;13.10;99.90
20068;DHT22;10194;50.824;7.134;2023-08-07T03:57:16;13.00;99.90
20068;DHT22;10194;50.824;7.134;2023-08-07T03:59:42;13.00;99.90
20068;DHT22;10194;50.824;7.134;2023-08-07T04:02:08;13.10;99.90
20068;DHT22;10194;50.824;7.134;2023-08-07T04:04:33;13.00;99.90
20068;DHT22;10194;50.824;7.134;2023-08-07T04:06:59;13.00;99.90
20068;DHT22;10194;50.824;7.134;2023-08-07T04:09:25;13.00;99.90
20068;DHT22;10194;50.824;7.134;2023-08-07T04:11:51;13.00;99.90
20068;DHT22;10194;50.824;7.134;2023-08-07T04:14:17;13.00;99.90
20068;DHT22;10194;50.824;7.134;2023-08-07T04:16:42;13.00;99.90
20068;DHT22;10194;50.824;7.134;2023-08-07T04:19:08;13.00;99.90
20068;DHT22;10194;50.824;7.134;2023-08-07T04:21:34;13.00;99.90
20068;DHT22;10194;50.824;7.134;2023-08-07T04:24:00;12.90;99.90
20068;DHT22;10194;50.824;7.134;2023-08-07T04:26:27;12.90;99.90
20068;DHT22;10194;50.824;7.134;2023-08-07T04:28:52;12.90;99.90
20068;DHT22;10194;50.824;7.134;2023-08-07T04:31:18;12.90;99.90
20068;DHT22;10194;50.824;7.134;2023-08-07T04:33:44;12.90;99.90
20068;DHT22;10194;50.824;7.134;2023-08-07T04:36:09;12.90;99.90
20068;DHT22;10194;50.824;7.134;2023-08-07T04:38:35;12.90;99.90
20068;DHT22;10194;50.824;7.134;2023-08-07T04:41:01;12.90;99.90
20068;DHT22;10194;50.824;7.134;2023-08-07T04:43:28;12.90;99.90
20068;DHT22;10194;50.824;7.134;2023-08-07T04:45:54;12.90;99.90
20068;DHT22;10194;50.824;7.134;2023-08-07T04:48:20;13.00;99.90
20068;DHT22;10194;50.824;7.134;2023-08-07T04:50:47;12.90;99.90
20068;DHT22;10194;50.824;7.134;2023-08-07T04:53:13;12.80;99.90
20068;DHT22;10194;50.824;7.134;2023-08-07T04:55:39;12.80;99.90
20068;DHT22;10194;50.824;7.134;2023-08-07T04:58:05;12.70;99.90
20068;DHT22;10194;50.824;7.134;2023-08-07T05:00:31;12.80;99.90
20068;DHT22;10194;50.824;7.134;2023-08-07T05:02:57;12.80;99.90
20068;DHT22;10194;50.824;7.134;2023-08-07T05:05:23;12.90;99.90
20068;DHT22;10194;50.824;7.134;2023-08-07T05:07:49;12.80;99.90
20068;DHT22;10194;50.824;7.134;2023-08-07T05:10:14;12.80;99.90
20068;DHT22;10194;50.824;7.134;2023-08-07T05:12:40;12.80;99.90
20068;DHT22;10194;50.824;7.134;2023-08-07T05:15:06;12.90;99.90
20068;DHT22;10194;50.824;7.134;2023-08-07T05:17:32;13.00;99.90
20068;DHT22;10194;50.824;7.134;2023-08-07T05:19:58;13.00;99.90
20068;DHT22;10194;50.824;7.134;2023-08-07T05:22:24;13.10;99.90
20068;DHT22;10194;50.824;7.134;2023-08-07T05:24:49;13.00;99.90
20068;DHT22;10194;50.824;7.134;2023-08-07T05:27:17;13.00;99.90
20068;DHT22;10194;50.824;7.134;2023-08-07T05:29:42;13.10;99.90
20068;DHT22;10194;50.824;7.134;2023-08-07T05:32:12;13.10;99.90
20068;DHT22;10194;50.824;7.134;2023-08-07T05:34:39;13.10;99.90
20068;DHT22;10194;50.824;7.134;2023-08-07T05:37:06;13.20;99.90
20068;DHT22;10194;50.824;7.134;2023-08-07T05:39:34;13.30;99.90
20068;DHT22;10194;50.824;7.134;2023-08-07T05:42:00;13.30;99.90
20068;DHT22;10194;50.824;7.134;2023-08-07T05:44:25;13.40;99.90
20068;DHT22;10194;50.824;7.134;2023-08-07T05:46:51;13.40;99.90
20068;DHT22;10194;50.824;7.134;2023-08-07T05:49:17;13.50;99.90
20068;DHT22;10194;50.824;7.134;2023-08-07T05:51:44;13.40;99.90
20068;DHT22;10194;50.824;7.134;2023-08-07T05:54:10;13.50;99.90
20068;DHT22;10194;50.824;7.134;2023-08-07T05:56:37;13.40;99.90
20068;DHT22;10194;50.824;7.134;2023-08-07T05:59:04;13.40;99.90
20068;DHT22;10194;50.824;7.134;2023-08-07T06:01:30;13.70;99.90
20068;DHT22;10194;50.824;7.134;2023-08-07T06:03:58;13.70;99.90
20068;DHT22;10194;50.824;7.134;2023-08-07T06:06:27;13.70;99.90
20068;DHT22;10194;50.824;7.134;2023-08-07T06:08:59;13.70;99.90
20068;DHT22;10194;50.824;7.134;2023-08-07T06:11:25;13.80;99.90
20068;DHT22;10194;50.824;7.134;2023-08-07T06:13:51;13.90;99.90
20068;DHT22;10194;50.824;7.134;2023-08-07T06:16:17;13.90;99.90
20068;DHT22;10194;50.824;7.134;2023-08-07T06:18:42;13.80;99.90
20068;DHT22;10194;50.824;7.134;2023-08-07T06:21:08;13.80;99.90
20068;DHT22;10194;50.824;7.134;2023-08-07T06:23:36;13.80;99.90
20068;DHT22;10194;50.824;7.134;2023-08-07T06:26:02;13.60;99.90
20068;DHT22;10194;50.824;7.134;2023-08-07T06:28:32;13.50;99.90
20068;DHT22;10194;50.824;7.134;2023-08-07T06:31:06;13.40;99.90
20068;DHT22;10194;50.824;7.134;2023-08-07T06:33:33;13.40;99.90
20068;DHT22;10194;50.824;7.134;2023-08-07T06:35:59;13.40;99.90
20068;DHT22;10194;50.824;7.134;2023-08-07T06:38:27;13.30;99.90
20068;DHT22;10194;50.824;7.134;2023-08-07T06:40:53;13.20;99.90
20068;DHT22;10194;50.824;7.134;2023-08-07T06:43:19;13.10;99.90
20068;DHT22;10194;50.824;7.134;2023-08-07T06:45:52;13.10;99.90
20068;DHT22;10194;50.824;7.134;2023-08-07T06:48:19;13.00;99.90
20068;DHT22;10194;50.824;7.134;2023-08-07T06:50:46;13.00;99.90
20068;DHT22;10194;50.824;7.134;2023-08-07T06:53:15;13.00;99.90
20068;DHT22;10194;50.824;7.134;2023-08-07T06:55:42;12.90;99.90
20068;DHT22;10194;50.824;7.134;2023-08-07T06:58:08;12.90;99.90
20068;DHT22;10194;50.824;7.134;2023-08-07T07:00:35;12.90;99.90
20068;DHT22;10194;50.824;7.134;2023-08-07T07:03:02;12.90;99.90
20068;DHT22;10194;50.824;7.134;2023-08-07T07:05:28;12.80;99.90
20068;DHT22;10194;50.824;7.134;2023-08-07T07:07:54;12.90;99.90
20068;DHT22;10194;50.824;7.134;2023-08-07T07:10:20;12.90;99.90
20068;DHT22;10194;50.824;7.134;2023-08-07T07:12:46;12.80;99.90
20068;DHT22;10194;50.824;7.134;2023-08-07T07:15:13;12.80;99.90
20068;DHT22;10194;50.824;7.134;2023-08-07T07:17:39;12.80;99.90
20068;DHT22;10194;50.824;7.134;2023-08-07T07:20:07;12.80;99.90
20068;DHT22;10194;50.824;7.134;2023-08-07T07:22:37;12.80;99.90
20068;DHT22;10194;50.824;7.134;2023-08-07T07:25:04;12.80;99.90
20068;DHT22;10194;50.824;7.134;2023-08-07T07:27:31;12.80;99.90
20068;DHT22;10194;50.824;7.134;2023-08-07T07:29:57;12.80;99.90
20068;DHT22;10194;50.824;7.134;2023-08-07T07:32:23;12.80;99.90
20068;DHT22;10194;50.824;7.134;2023-08-07T07:34:49;12.80;99.90
20068;DHT22;10194;50.824;7.134;2023-08-07T07:37:15;12.80;99.90
20068;DHT22;10194;50.824;7.134;2023-08-07T07:39:42;12.90;99.90
20068;DHT22;10194;50.824;7.134;2023-08-07T07:42:08;12.90;99.90
20068;DHT22;10194;50.824;7.134;2023-08-07T07:44:34;13.00;99.90
20068;DHT22;10194;50.824;7.134;2023-08-07T07:47:04;13.00;99.90
20068;DHT22;10194;50.824;7.134;2023-08-07T07:49:33;13.00;99.90
20068;DHT22;10194;50.824;7.134;2023-08-07T07:51:59;13.00;99.90
20068;DHT22;10194;50.824;7.134;2023-08-07T07:54:25;13.00;99.90
20068;DHT22;10194;50.824;7.134;2023-08-07T07:56:50;13.10;99.90
20068;DHT22;10194;50.824;7.134;2023-08-07T07:59:16;13.20;99.90
20068;DHT22;10194;50.824;7.134;2023-08-07T08:01:42;13.30;99.90
20068;DHT22;10194;50.824;7.134;2023-08-07T08:04:08;13.40;99.90
20068;DHT22;10194;50.824;7.134;2023-08-07T08:06:35;13.40;99.90
20068;DHT22;10194;50.824;7.134;2023-08-07T08:09:01;13.40;99.90
20068;DHT22;10194;50.824;7.134;2023-08-07T08:11:32;13.40;99.90
20068;DHT22;10194;50.824;7.134;2023-08-07T08:13:58;13.30;99.90
20068;DHT22;10194;50.824;7.134;2023-08-07T08:16:24;13.40;99.90
20068;DHT22;10194;50.824;7.134;2023-08-07T08:18:50;13.50;99.90
20068;DHT22;10194;50.824;7.134;2023-08-07T08:21:15;13.50;99.90
20068;DHT22;10194;50.824;7.134;2023-08-07T08:23:41;13.50;99.90
20068;DHT22;10194;50.824;7.134;2023-08-07T08:26:07;13.50;99.90
20068;DHT22;10194;50.824;7.134;2023-08-07T08:28:33;13.60;99.90
20068;DHT22;10194;50.824;7.134;2023-08-07T08:30:58;13.60;99.90
20068;DHT22;10194;50.824;7.134;2023-08-07T08:33:24;13.70;99.90
20068;DHT22;10194;50.824;7.134;2023-08-07T08:35:50;13.70;99.90
20068;DHT22;10194;50.824;7.134;2023-08-07T08:38:16;13.70;99.90
20068;DHT22;10194;50.824;7.134;2023-08-07T08:40:44;13.70;99.90
20068;DHT22;10194;50.824;7.134;2023-08-07T08:43:12;13.80;99.90
20068;DHT22;10194;50.824;7.134;2023-08-07T08:45:39;13.80;99.90
20068;DHT22;10194;50.824;7.134;2023-08-07T08:48:06;13.90;99.90
20068;DHT22;10194;50.824;7.134;2023-08-07T08:50:33;14.00;99.90
20068;DHT22;10194;50.824;7.134;2023-08-07T08:53:02;14.00;99.90
20068;DHT22;10194;50.824;7.134;2023-08-07T08:55:29;14.00;99.90
20068;DHT22;10194;50.824;7.134;2023-08-07T08:57:57;14.00;99.90
20068;DHT22;10194;50.824;7.134;2023-08-07T09:00:26;14.00;99.90
20068;DHT22;10194;50.824;7.134;2023-08-07T09:02:54;14.10;99.90
20068;DHT22;10194;50.824;7.134;2023-08-07T09:05:21;14.10;99.90
20068;DHT22;10194;50.824;7.134;2023-08-07T09:07:49;14.20;99.90
20068;DHT22;10194;50.824;7.134;2023-08-07T09:10:16;14.20;99.90
20068;DHT22;10194;50.824;7.134;2023-08-07T09:12:53;14.30;99.90
20068;DHT22;10194;50.824;7.134;2023-08-07T09:15:20;14.40;99.90
20068;DHT22;10194;50.824;7.134;2023-08-07T09:17:48;14.40;99.90
20068;DHT22;10194;50.824;7.134;2023-08-07T09:20:17;14.60;99.90
20068;DHT22;10194;50.824;7.134;2023-08-07T09:22:45;14.60;99.90
20068;DHT22;10194;50.824;7.134;2023-08-07T09:25:12;14.70;99.90
20068;DHT22;10194;50.824;7.134;2023-08-07T09:27:39;14.90;99.90
20068;DHT22;10194;50.824;7.134;2023-08-07T09:30:07;15.10;99.90
20068;DHT22;10194;50.824;7.134;2023-08-07T09:32:36;15.10;99.90
20068;DHT22;10194;50.824;7.134;2023-08-07T09:35:04;15.20;99.90
20068;DHT22;10194;50.824;7.134;2023-08-07T09:37:31;15.10;99.90
20068;DHT22;10194;50.824;7.134;2023-08-07T09:40:00;15.20;99.90
20068;DHT22;10194;50.824;7.134;2023-08-07T09:42:30;15.30;99.90
20068;DHT22;10194;50.824;7.134;2023-08-07T09:44:59;15.30;99.90
20068;DHT22;10194;50.824;7.134;2023-08-07T09:47:25;15.30;99.90
20068;DHT22;10194;50.824;7.134;2023-08-07T09:49:54;15.20;99.90
20068;DHT22;10194;50.824;7.134;2023-08-07T09:52:20;15.20;99.90
20068;DHT22;10194;50.824;7.134;2023-08-07T09:54:46;15.20;99.90
20068;DHT22;10194;50.824;7.134;2023-08-07T09:57:13;15.30;99.90
20068;DHT22;10194;50.824;7.134;2023-08-07T09:59:41;15.60;99.90
20068;DHT22;10194;50.824;7.134;2023-08-07T10:02:07;15.80;99.90
20068;DHT22;10194;50.824;7.134;2023-08-07T10:04:35;16.10;99.90
20068;DHT22;10194;50.824;7.134;2023-08-07T10:07:02;16.30;99.90
20068;DHT22;10194;50.824;7.134;2023-08-07T10:09:30;16.60;99.90
20068;DHT22;10194;50.824;7.134;2023-08-07T10:11:58;16.60;99.90
20068;DHT22;10194;50.824;7.134;2023-08-07T10:14:28;16.60;99.90
20068;DHT22;10194;50.824;7.134;2023-08-07T10:16:54;16.60;99.90
20068;DHT22;10194;50.824;7.134;2023-08-07T10:19:20;16.40;99.90
20068;DHT22;10194;50.824;7.134;2023-08-07T10:21:46;16.30;99.90
20068;DHT22;10194;50.824;7.134;2023-08-07T10:24:13;16.20;99.90
20068;DHT22;10194;50.824;7.134;2023-08-07T10:26:45;16.30;99.90
20068;DHT22;10194;50.824;7.134;2023-08-07T10:29:14;16.40;99.90
20068;DHT22;10194;50.824;7.134;2023-08-07T10:31:44;16.50;99.90
20068;DHT22;10194;50.824;7.134;2023-08-07T10:34:11;16.60;99.90
20068;DHT22;10194;50.824;7.134;2023-08-07T10:36:37;16.80;99.90
20068;DHT22;10194;50.824;7.134;2023-08-07T10:39:11;17.10;99.90
20068;DHT22;10194;50.824;7.134;2023-08-07T10:41:42;17.50;99.90
20068;DHT22;10194;50.824;7.134;2023-08-07T10:44:25;17.60;99.90
20068;DHT22;10194;50.824;7.134;2023-08-07T10:46:57;17.70;99.90
20068;DHT22;10194;50.824;7.134;2023-08-07T10:52:12;17.80;99.90
20068;DHT22;10194;50.824;7.134;2023-08-07T10:54:49;18.20;99.90
20068;DHT22;10194;50.824;7.134;2023-08-07T10:57:17;18.10;99.90
20068;DHT22;10194;50.824;7.134;2023-08-07T10:59:50;17.80;99.90
20068;DHT22;10194;50.824;7.134;2023-08-07T11:02:25;17.60;99.90
20068;DHT22;10194;50.824;7.134;2023-08-07T11:04:53;17.40;99.90
20068;DHT22;10194;50.824;7.134;2023-08-07T11:07:26;17.90;99.90
20068;DHT22;10194;50.824;7.134;2023-08-07T11:09:54;18.30;99.90
20068;DHT22;10194;50.824;7.134;2023-08-07T11:12:23;18.50;99.90
20068;DHT22;10194;50.824;7.134;2023-08-07T11:14:50;18.80;99.90
20068;DHT22;10194;50.824;7.134;2023-08-07T11:17:18;18.90;99.90
20068;DHT22;10194;50.824;7.134;2023-08-07T11:19:47;18.60;99.90
20068;DHT22;10194;50.824;7.134;2023-08-07T11:22:15;18.30;99.90
20068;DHT22;10194;50.824;7.134;2023-08-07T11:24:41;18.10;99.90
20068;DHT22;10194;50.824;7.134;2023-08-07T11:27:08;17.90;99.90
20068;DHT22;10194;50.824;7.134;2023-08-07T11:29:34;17.90;99.90
20068;DHT22;10194;50.824;7.134;2023-08-07T11:32:00;17.90;99.90
20068;DHT22;10194;50.824;7.134;2023-08-07T11:34:25;18.10;99.90
20068;DHT22;10194;50.824;7.134;2023-08-07T11:36:51;18.30;99.90
20068;DHT22;10194;50.824;7.134;2023-08-07T11:39:19;18.60;99.90
20068;DHT22;10194;50.824;7.134;2023-08-07T11:41:46;18.70;99.90
20068;DHT22;10194;50.824;7.134;2023-08-07T11:44:12;18.60;99.90
20068;DHT22;10194;50.824;7.134;2023-08-07T11:46:38;18.30;99.90
20068;DHT22;10194;50.824;7.134;2023-08-07T11:49:04;18.00;99.90
20068;DHT22;10194;50.824;7.134;2023-08-07T11:51:30;17.90;99.90
20068;DHT22;10194;50.824;7.134;2023-08-07T11:53:56;18.30;99.90
20068;DHT22;10194;50.824;7.134;2023-08-07T11:56:24;18.60;99.90
20068;DHT22;10194;50.824;7.134;2023-08-07T11:58:52;18.80;99.90
20068;DHT22;10194;50.824;7.134;2023-08-07T12:01:24;19.10;99.90
20068;DHT22;10194;50.824;7.134;2023-08-07T12:04:13;19.30;99.90
20068;DHT22;10194;50.824;7.134;2023-08-07T12:06:41;19.50;99.90
20068;DHT22;10194;50.824;7.134;2023-08-07T12:09:18;19.50;99.90
20068;DHT22;10194;50.824;7.134;2023-08-07T12:11:43;19.30;99.90
20068;DHT22;10194;50.824;7.134;2023-08-07T12:14:13;19.10;99.90
20068;DHT22;10194;50.824;7.134;2023-08-07T12:16:44;18.60;99.90
20068;DHT22;10194;50.824;7.134;2023-08-07T12:19:13;18.80;99.90
20068;DHT22;10194;50.824;7.134;2023-08-07T12:21:42;19.20;99.90
20068;DHT22;10194;50.824;7.134;2023-08-07T12:24:08;19.20;99.90
20068;DHT22;10194;50.824;7.134;2023-08-07T12:26:34;18.90;99.90
20068;DHT22;10194;50.824;7.134;2023-08-07T12:29:00;18.70;99.90
20068;DHT22;10194;50.824;7.134;2023-08-07T12:31:26;18.60;99.90
20068;DHT22;10194;50.824;7.134;2023-08-07T12:33:51;18.70;99.90
20068;DHT22;10194;50.824;7.134;2023-08-07T12:36:17;19.00;99.90
20068;DHT22;10194;50.824;7.134;2023-08-07T12:38:43;19.40;99.90
20068;DHT22;10194;50.824;7.134;2023-08-07T12:41:09;19.70;99.90
20068;DHT22;10194;50.824;7.134;2023-08-07T12:43:35;19.70;99.90
20068;DHT22;10194;50.824;7.134;2023-08-07T12:46:00;19.80;99.90
20068;DHT22;10194;50.824;7.134;2023-08-07T12:48:27;19.80;99.90
20068;DHT22;10194;50.824;7.134;2023-08-07T12:50:54;19.40;99.90
20068;DHT22;10194;50.824;7.134;2023-08-07T12:53:19;19.30;99.90
20068;DHT22;10194;50.824;7.134;2023-08-07T12:55:45;19.30;99.90
20068;DHT22;10194;50.824;7.134;2023-08-07T12:58:11;19.40;99.90
20068;DHT22;10194;50.824;7.134;2023-08-07T13:00:37;19.30;99.90
20068;DHT22;10194;50.824;7.134;2023-08-07T13:03:02;19.20;99.90
20068;DHT22;10194;50.824;7.134;2023-08-07T13:05:29;19.30;99.90
20068;DHT22;10194;50.824;7.134;2023-08-07T13:07:57;19.40;99.90
20068;DHT22;10194;50.824;7.134;2023-08-07T13:10:24;19.40;99.90
20068;DHT22;10194;50.824;7.134;2023-08-07T13:12:50;19.20;99.90
20068;DHT22;10194;50.824;7.134;2023-08-07T13:15:17;19.30;99.90
20068;DHT22;10194;50.824;7.134;2023-08-07T13:17:43;19.10;99.90
20068;DHT22;10194;50.824;7.134;2023-08-07T13:20:11;19.10;99.90
20068;DHT22;10194;50.824;7.134;2023-08-07T13:22:39;19.10;99.90
20068;DHT22;10194;50.824;7.134;2023-08-07T13:25:07;19.20;99.90
20068;DHT22;10194;50.824;7.134;2023-08-07T13:27:34;19.40;99.90
20068;DHT22;10194;50.824;7.134;2023-08-07T13:30:01;19.50;99.90
20068;DHT22;10194;50.824;7.134;2023-08-07T13:32:28;19.50;99.90
20068;DHT22;10194;50.824;7.134;2023-08-07T13:34:54;19.50;99.90
20068;DHT22;10194;50.824;7.134;2023-08-07T13:37:21;19.60;99.90
20068;DHT22;10194;50.824;7.134;2023-08-07T13:39:46;19.50;99.90
20068;DHT22;10194;50.824;7.134;2023-08-07T13:42:15;19.60;99.90
20068;DHT22;10194;50.824;7.134;2023-08-07T13:44:41;19.60;99.90
20068;DHT22;10194;50.824;7.134;2023-08-07T13:47:07;19.60;99.90
20068;DHT22;10194;50.824;7.134;2023-08-07T13:49:35;19.40;99.90
20068;DHT22;10194;50.824;7.134;2023-08-07T13:52:01;19.10;99.90
20068;DHT22;10194;50.824;7.134;2023-08-07T13:54:26;19.30;99.90
20068;DHT22;10194;50.824;7.134;2023-08-07T13:56:52;19.40;99.90
20068;DHT22;10194;50.824;7.134;2023-08-07T13:59:18;19.40;99.90
20068;DHT22;10194;50.824;7.134;2023-08-07T14:01:44;19.20;99.90
20068;DHT22;10194;50.824;7.134;2023-08-07T14:04:10;19.10;99.90
20068;DHT22;10194;50.824;7.134;2023-08-07T14:06:36;19.10;99.90
20068;DHT22;10194;50.824;7.134;2023-08-07T14:09:03;19.10;99.90
20068;DHT22;10194;50.824;7.134;2023-08-07T14:11:29;19.10;99.90
20068;DHT22;10194;50.824;7.134;2023-08-07T14:13:57;19.10;99.90
20068;DHT22;10194;50.824;7.134;2023-08-07T14:16:23;19.10;99.90
20068;DHT22;10194;50.824;7.134;2023-08-07T14:18:51;18.90;99.90
20068;DHT22;10194;50.824;7.134;2023-08-07T14:21:17;18.80;99.90
20068;DHT22;10194;50.824;7.134;2023-08-07T14:23:43;18.60;99.90
20068;DHT22;10194;50.824;7.134;2023-08-07T14:26:11;18.50;99.90
20068;DHT22;10194;50.824;7.134;2023-08-07T14:28:38;18.40;99.90
20068;DHT22;10194;50.824;7.134;2023-08-07T14:31:07;18.40;99.90
20068;DHT22;10194;50.824;7.134;2023-08-07T14:33:36;18.60;99.90
20068;DHT22;10194;50.824;7.134;2023-08-07T14:36:02;18.60;99.90
20068;DHT22;10194;50.824;7.134;2023-08-07T14:38:28;18.50;99.90
20068;DHT22;10194;50.824;7.134;2023-08-07T14:40:55;18.70;99.90
20068;DHT22;10194;50.824;7.134;2023-08-07T14:43:22;18.90;99.90
20068;DHT22;10194;50.824;7.134;2023-08-07T14:45:48;19.20;99.90
20068;DHT22;10194;50.824;7.134;2023-08-07T14:48:15;19.30;99.90
20068;DHT22;10194;50.824;7.134;2023-08-07T14:50:41;19.20;99.90
20068;DHT22;10194;50.824;7.134;2023-08-07T14:53:07;19.00;99.90
20068;DHT22;10194;50.824;7.134;2023-08-07T14:55:33;18.90;99.90
20068;DHT22;10194;50.824;7.134;2023-08-07T14:57:59;19.00;99.90
20068;DHT22;10194;50.824;7.134;2023-08-07T15:00:24;19.00;99.90
20068;DHT22;10194;50.824;7.134;2023-08-07T15:02:50;18.90;99.90
20068;DHT22;10194;50.824;7.134;2023-08-07T15:05:16;18.80;99.90
20068;DHT22;10194;50.824;7.134;2023-08-07T15:07:42;18.70;99.90
20068;DHT22;10194;50.824;7.134;2023-08-07T15:10:08;18.60;99.90
20068;DHT22;10194;50.824;7.134;2023-08-07T15:12:34;18.50;99.90
20068;DHT22;10194;50.824;7.134;2023-08-07T15:15:00;18.70;99.90
20068;DHT22;10194;50.824;7.134;2023-08-07T15:17:27;19.00;99.90
20068;DHT22;10194;50.824;7.134;2023-08-07T15:19:52;19.00;99.90
20068;DHT22;10194;50.824;7.134;2023-08-07T15:22:18;19.00;99.90
20068;DHT22;10194;50.824;7.134;2023-08-07T15:24:44;19.10;99.90
20068;DHT22;10194;50.824;7.134;2023-08-07T15:27:09;19.10;99.90
20068;DHT22;10194;50.824;7.134;2023-08-07T15:29:35;19.10;99.90
20068;DHT22;10194;50.824;7.134;2023-08-07T15:32:01;19.20;99.90
20068;DHT22;10194;50.824;7.134;2023-08-07T15:34:27;19.10;99.90
20068;DHT22;10194;50.824;7.134;2023-08-07T15:36:52;19.20;99.90